sensor_id;sensor_type;location;lat;lon;timestamp;temperature;humidity
17762;DHT22;9005;48.838;10.112;2023-06-14T00:07:33;12.90;1.00
17762;DHT22;9005;48.838;10.112;2023-06-14T00:12:28;12.90;2.90
17762;DHT22;9005;48.838;10.112;2023-06-14T00:14:55;13.00;99.90
17762;DHT22;9005;48.838;10.112;2023-06-14T00:24:45;12.50;99.90
17762;DHT22;9005;48.838;10.112;2023-06-14T00:29:40;12.50;24.10
17762;DHT22;9005;48.838;10.112;2023-06-14T00:44:23;12.60;99.90
17762;DHT22;9005;48.838;10.112;2023-06-14T00:46:51;12.70;16.40
17762;DHT22;9005;48.838;10.112;2023-06-14T00:49:19;12.50;16.50
17762;DHT22;9005;48.838;10.112;2023-06-14T01:06:38;12.20;24.50
17762;DHT22;9005;48.838;10.112;2023-06-14T01:09:13;12.20;36.00
17762;DHT22;9005;48.838;10.112;2023-06-14T01:11:49;12.20;28.90
17762;DHT22;9005;48.838;10.112;2023-06-14T01:19:14;12.10;46.30
17762;DHT22;9005;48.838;10.112;2023-06-14T01:24:10;12.00;45.80
17762;DHT22;9005;48.838;10.112;2023-06-14T01:26:38;12.00;45.50
17762;DHT22;9005;48.838;10.112;2023-06-14T01:41:33;12.10;81.20
17762;DHT22;9005;48.838;10.112;2023-06-14T01:58:45;11.30;99.90
17762;DHT22;9005;48.838;10.112;2023-06-14T02:16:01;11.30;99.90
17762;DHT22;9005;48.838;10.112;2023-06-14T02:23:22;11.00;99.90
17762;DHT22;9005;48.838;10.112;2023-06-14T02:25:49;11.30;99.90
17762;DHT22;9005;48.838;10.112;2023-06-14T02:30:43;11.00;99.90
17762;DHT22;9005;48.838;10.112;2023-06-14T02:50:23;10.90;99.90
17762;DHT22;9005;48.838;10.112;2023-06-14T03:12:34;10.70;99.90
17762;DHT22;9005;48.838;10.112;2023-06-14T03:49:34;10.30;99.90
17762;DHT22;9005;48.838;10.112;2023-06-14T03:52:02;10.70;1.00
17762;DHT22;9005;48.838;10.112;2023-06-14T03:59:26;10.40;99.90
17762;DHT22;9005;48.838;10.112;2023-06-14T04:24:07;10.70;1.00
17762;DHT22;9005;48.838;10.112;2023-06-14T04:26:38;11.00;1.00
17762;DHT22;9005;48.838;10.112;2023-06-14T04:34:00;10.80;99.90
17762;DHT22;9005;48.838;10.112;2023-06-14T05:03:46;11.70;1.00
17762;DHT22;9005;48.838;10.112;2023-06-14T05:08:44;11.60;1.00
17762;DHT22;9005;48.838;10.112;2023-06-14T05:30:51;12.20;99.90
17762;DHT22;9005;48.838;10.112;2023-06-14T05:38:12;12.50;1.00
17762;DHT22;9005;48.838;10.112;2023-06-14T05:43:07;12.60;99.90
17762;DHT22;9005;48.838;10.112;2023-06-14T05:55:22;13.10;99.90
17762;DHT22;9005;48.838;10.112;2023-06-14T06:00:19;13.20;99.90
17762;DHT22;9005;48.838;10.112;2023-06-14T06:07:41;13.60;99.90
17762;DHT22;9005;48.838;10.112;2023-06-14T06:10:10;13.60;99.90
17762;DHT22;9005;48.838;10.112;2023-06-14T06:15:04;14.00;99.90
17762;DHT22;9005;48.838;10.112;2023-06-14T06:34:45;14.80;99.90
17762;DHT22;9005;48.838;10.112;2023-06-14T06:39:40;15.10;99.90
17762;DHT22;9005;48.838;10.112;2023-06-14T06:52:04;15.70;86.10
17762;DHT22;9005;48.838;10.112;2023-06-14T06:59:26;16.00;99.90
17762;DHT22;9005;48.838;10.112;2023-06-14T07:09:16;16.40;91.80
17762;DHT22;9005;48.838;10.112;2023-06-14T07:24:03;16.90;99.90
17762;DHT22;9005;48.838;10.112;2023-06-14T07:26:31;17.20;99.90
17762;DHT22;9005;48.838;10.112;2023-06-14T07:38:47;17.80;99.90
17762;DHT22;9005;48.838;10.112;2023-06-14T07:43:42;17.90;4.80
17762;DHT22;9005;48.838;10.112;2023-06-14T08:00:53;18.60;94.70
17762;DHT22;9005;48.838;10.112;2023-06-14T08:08:15;18.70;99.90
17762;DHT22;9005;48.838;10.112;2023-06-14T08:18:04;19.10;9.30
17762;DHT22;9005;48.838;10.112;2023-06-14T08:22:58;19.20;99.90
17762;DHT22;9005;48.838;10.112;2023-06-14T08:25:25;19.40;99.90
17762;DHT22;9005;48.838;10.112;2023-06-14T08:27:52;19.40;99.90
17762;DHT22;9005;48.838;10.112;2023-06-14T08:35:14;19.60;25.10
17762;DHT22;9005;48.838;10.112;2023-06-14T08:40:19;19.80;22.90
17762;DHT22;9005;48.838;10.112;2023-06-14T08:42:50;20.00;12.30
17762;DHT22;9005;48.838;10.112;2023-06-14T08:45:17;20.00;99.90
17762;DHT22;9005;48.838;10.112;2023-06-14T08:50:11;20.00;9.30
17762;DHT22;9005;48.838;10.112;2023-06-14T08:52:45;20.10;12.80
17762;DHT22;9005;48.838;10.112;2023-06-14T08:57:46;20.50;20.50
17762;DHT22;9005;48.838;10.112;2023-06-14T09:00:15;20.20;99.90
17762;DHT22;9005;48.838;10.112;2023-06-14T09:02:42;20.40;99.90
17762;DHT22;9005;48.838;10.112;2023-06-14T09:05:09;20.40;59.10
17762;DHT22;9005;48.838;10.112;2023-06-14T09:10:10;20.90;1.00
17762;DHT22;9005;48.838;10.112;2023-06-14T09:15:06;20.50;47.20
17762;DHT22;9005;48.838;10.112;2023-06-14T09:17:34;20.70;93.40
17762;DHT22;9005;48.838;10.112;2023-06-14T09:22:31;20.70;22.90
17762;DHT22;9005;48.838;10.112;2023-06-14T09:27:27;21.10;96.90
17762;DHT22;9005;48.838;10.112;2023-06-14T09:32:21;21.50;1.00
17762;DHT22;9005;48.838;10.112;2023-06-14T09:37:27;21.60;6.40
17762;DHT22;9005;48.838;10.112;2023-06-14T09:44:53;21.50;1.00
17762;DHT22;9005;48.838;10.112;2023-06-14T09:47:20;21.60;1.00
17762;DHT22;9005;48.838;10.112;2023-06-14T09:49:48;21.90;1.00
17762;DHT22;9005;48.838;10.112;2023-06-14T09:52:16;22.10;64.00
17762;DHT22;9005;48.838;10.112;2023-06-14T09:54:44;22.30;63.20
17762;DHT22;9005;48.838;10.112;2023-06-14T09:57:12;22.40;1.00
17762;DHT22;9005;48.838;10.112;2023-06-14T09:59:41;22.70;1.00
17762;DHT22;9005;48.838;10.112;2023-06-14T10:02:15;23.00;1.00
17762;DHT22;9005;48.838;10.112;2023-06-14T10:04:48;22.90;1.00
17762;DHT22;9005;48.838;10.112;2023-06-14T10:07:19;23.30;40.00
17762;DHT22;9005;48.838;10.112;2023-06-14T10:09:47;23.40;1.00
17762;DHT22;9005;48.838;10.112;2023-06-14T10:12:16;23.40;1.00
17762;DHT22;9005;48.838;10.112;2023-06-14T10:14:47;23.50;1.00
17762;DHT22;9005;48.838;10.112;2023-06-14T10:17:23;23.60;37.10
17762;DHT22;9005;48.838;10.112;2023-06-14T10:19:56;23.70;1.00
17762;DHT22;9005;48.838;10.112;2023-06-14T10:22:30;23.70;15.40
17762;DHT22;9005;48.838;10.112;2023-06-14T10:24:59;23.50;1.00
17762;DHT22;9005;48.838;10.112;2023-06-14T10:32:32;26.40;1.00
17762;DHT22;9005;48.838;10.112;2023-06-14T10:35:00;27.20;1.00
17762;DHT22;9005;48.838;10.112;2023-06-14T10:37:27;27.80;28.20
17762;DHT22;9005;48.838;10.112;2023-06-14T10:39:54;28.80;11.40
17762;DHT22;9005;48.838;10.112;2023-06-14T10:44:51;28.50;1.00
17762;DHT22;9005;48.838;10.112;2023-06-14T10:47:29;28.70;12.30
17762;DHT22;9005;48.838;10.112;2023-06-14T10:50:03;28.70;14.90
17762;DHT22;9005;48.838;10.112;2023-06-14T10:52:33;29.70;1.00
17762;DHT22;9005;48.838;10.112;2023-06-14T10:55:11;30.90;1.00
17762;DHT22;9005;48.838;10.112;2023-06-14T10:57:41;32.10;1.00
17762;DHT22;9005;48.838;10.112;2023-06-14T11:00:09;32.70;1.00
17762;DHT22;9005;48.838;10.112;2023-06-14T11:02:52;33.70;2.00
17762;DHT22;9005;48.838;10.112;2023-06-14T11:05:27;34.70;1.00
17762;DHT22;9005;48.838;10.112;2023-06-14T11:08:18;35.40;1.00
17762;DHT22;9005;48.838;10.112;2023-06-14T11:10:50;35.70;1.00
17762;DHT22;9005;48.838;10.112;2023-06-14T11:13:17;35.90;1.00
17762;DHT22;9005;48.838;10.112;2023-06-14T11:15:45;35.80;1.00
17762;DHT22;9005;48.838;10.112;2023-06-14T11:18:13;35.70;1.00
17762;DHT22;9005;48.838;10.112;2023-06-14T11:20:45;35.30;1.00
17762;DHT22;9005;48.838;10.112;2023-06-14T11:25:39;34.00;1.00
17762;DHT22;9005;48.838;10.112;2023-06-14T11:28:06;34.20;1.00
17762;DHT22;9005;48.838;10.112;2023-06-14T11:33:00;35.70;1.00
17762;DHT22;9005;48.838;10.112;2023-06-14T11:37:55;37.10;1.00
17762;DHT22;9005;48.838;10.112;2023-06-14T11:40:23;37.80;1.00
17762;DHT22;9005;48.838;10.112;2023-06-14T11:42:58;38.10;1.00
17762;DHT22;9005;48.838;10.112;2023-06-14T11:47:54;37.70;1.00
17762;DHT22;9005;48.838;10.112;2023-06-14T11:50:21;38.00;1.00
17762;DHT22;9005;48.838;10.112;2023-06-14T11:52:52;37.60;1.00
17762;DHT22;9005;48.838;10.112;2023-06-14T11:55:20;37.40;1.00
17762;DHT22;9005;48.838;10.112;2023-06-14T11:57:48;37.00;1.00
17762;DHT22;9005;48.838;10.112;2023-06-14T12:00:15;37.60;1.00
17762;DHT22;9005;48.838;10.112;2023-06-14T12:02:43;37.40;1.00
17762;DHT22;9005;48.838;10.112;2023-06-14T12:05:20;37.80;1.00
17762;DHT22;9005;48.838;10.112;2023-06-14T12:10:16;37.60;1.00
17762;DHT22;9005;48.838;10.112;2023-06-14T12:12:44;36.90;1.00
17762;DHT22;9005;48.838;10.112;2023-06-14T12:17:39;34.20;1.00
17762;DHT22;9005;48.838;10.112;2023-06-14T12:20:08;32.80;1.00
17762;DHT22;9005;48.838;10.112;2023-06-14T12:25:06;30.50;1.00
17762;DHT22;9005;48.838;10.112;2023-06-14T12:27:35;28.70;1.00
17762;DHT22;9005;48.838;10.112;2023-06-14T12:30:04;27.50;1.00
17762;DHT22;9005;48.838;10.112;2023-06-14T12:47:17;25.30;1.00
17762;DHT22;9005;48.838;10.112;2023-06-14T13:02:11;25.20;1.00
17762;DHT22;9005;48.838;10.112;2023-06-14T13:04:39;25.30;1.00
17762;DHT22;9005;48.838;10.112;2023-06-14T13:07:06;25.20;1.00
17762;DHT22;9005;48.838;10.112;2023-06-14T13:12:00;25.50;1.00
17762;DHT22;9005;48.838;10.112;2023-06-14T13:21:50;25.30;1.00
17762;DHT22;9005;48.838;10.112;2023-06-14T13:24:17;25.40;1.00
17762;DHT22;9005;48.838;10.112;2023-06-14T13:26:43;25.40;1.00
17762;DHT22;9005;48.838;10.112;2023-06-14T13:29:10;25.60;1.00
17762;DHT22;9005;48.838;10.112;2023-06-14T13:38:59;26.50;1.00
17762;DHT22;9005;48.838;10.112;2023-06-14T13:46:24;26.50;1.00
17762;DHT22;9005;48.838;10.112;2023-06-14T13:53:46;27.20;1.00
17762;DHT22;9005;48.838;10.112;2023-06-14T13:56:15;27.30;1.00
17762;DHT22;9005;48.838;10.112;2023-06-14T13:58:42;27.40;1.00
17762;DHT22;9005;48.838;10.112;2023-06-14T14:01:09;28.10;1.00
17762;DHT22;9005;48.838;10.112;2023-06-14T14:06:04;28.40;1.00
17762;DHT22;9005;48.838;10.112;2023-06-14T14:10:58;28.70;1.00
17762;DHT22;9005;48.838;10.112;2023-06-14T14:13:27;29.50;1.00
17762;DHT22;9005;48.838;10.112;2023-06-14T14:20:48;30.50;1.00
17762;DHT22;9005;48.838;10.112;2023-06-14T14:30:38;33.80;1.00
17762;DHT22;9005;48.838;10.112;2023-06-14T14:33:05;34.50;1.00
17762;DHT22;9005;48.838;10.112;2023-06-14T14:35:32;34.40;1.00
17762;DHT22;9005;48.838;10.112;2023-06-14T14:38:00;34.80;1.00
17762;DHT22;9005;48.838;10.112;2023-06-14T14:47:51;34.30;1.00
17762;DHT22;9005;48.838;10.112;2023-06-14T15:00:07;35.30;1.00
17762;DHT22;9005;48.838;10.112;2023-06-14T15:05:03;34.50;1.00
17762;DHT22;9005;48.838;10.112;2023-06-14T15:07:30;34.40;1.00
17762;DHT22;9005;48.838;10.112;2023-06-14T15:19:49;31.60;1.00
17762;DHT22;9005;48.838;10.112;2023-06-14T15:22:17;31.20;1.00
17762;DHT22;9005;48.838;10.112;2023-06-14T15:27:12;31.10;1.00
17762;DHT22;9005;48.838;10.112;2023-06-14T15:29:41;30.90;1.00
17762;DHT22;9005;48.838;10.112;2023-06-14T15:32:08;31.50;1.00
17762;DHT22;9005;48.838;10.112;2023-06-14T15:37:03;31.30;1.00
17762;DHT22;9005;48.838;10.112;2023-06-14T15:39:32;30.60;1.00
17762;DHT22;9005;48.838;10.112;2023-06-14T15:41:58;30.70;1.00
17762;DHT22;9005;48.838;10.112;2023-06-14T15:44:26;30.30;1.00
17762;DHT22;9005;48.838;10.112;2023-06-14T15:49:20;30.40;1.00
17762;DHT22;9005;48.838;10.112;2023-06-14T15:54:14;30.60;1.00
17762;DHT22;9005;48.838;10.112;2023-06-14T15:56:42;31.80;1.00
17762;DHT22;9005;48.838;10.112;2023-06-14T16:06:30;32.20;1.00
17762;DHT22;9005;48.838;10.112;2023-06-14T16:13:52;32.10;1.00
17762;DHT22;9005;48.838;10.112;2023-06-14T16:16:20;31.60;1.00
17762;DHT22;9005;48.838;10.112;2023-06-14T16:18:47;31.30;1.00
17762;DHT22;9005;48.838;10.112;2023-06-14T16:26:10;31.90;1.00
17762;DHT22;9005;48.838;10.112;2023-06-14T16:31:05;31.80;1.00
17762;DHT22;9005;48.838;10.112;2023-06-14T16:33:32;32.20;1.00
17762;DHT22;9005;48.838;10.112;2023-06-14T16:38:26;32.90;1.00
17762;DHT22;9005;48.838;10.112;2023-06-14T16:48:15;32.70;1.00
17762;DHT22;9005;48.838;10.112;2023-06-14T16:55:36;32.80;1.00
17762;DHT22;9005;48.838;10.112;2023-06-14T17:05:26;32.70;1.00
17762;DHT22;9005;48.838;10.112;2023-06-14T17:20:09;31.30;1.00
17762;DHT22;9005;48.838;10.112;2023-06-14T17:22:37;30.60;1.00
17762;DHT22;9005;48.838;10.112;2023-06-14T17:25:06;30.00;1.00
17762;DHT22;9005;48.838;10.112;2023-06-14T17:30:00;28.60;1.00
17762;DHT22;9005;48.838;10.112;2023-06-14T17:37:21;28.10;1.00
17762;DHT22;9005;48.838;10.112;2023-06-14T17:39:49;28.70;1.00
17762;DHT22;9005;48.838;10.112;2023-06-14T17:42:16;29.30;1.00
17762;DHT22;9005;48.838;10.112;2023-06-14T17:57:00;29.80;1.00
17762;DHT22;9005;48.838;10.112;2023-06-14T18:11:43;29.00;1.00
17762;DHT22;9005;48.838;10.112;2023-06-14T18:14:11;28.70;1.00
17762;DHT22;9005;48.838;10.112;2023-06-14T18:21:33;28.20;1.00
17762;DHT22;9005;48.838;10.112;2023-06-14T18:24:00;28.20;1.00
17762;DHT22;9005;48.838;10.112;2023-06-14T18:28:55;28.40;1.00
17762;DHT22;9005;48.838;10.112;2023-06-14T18:31:23;27.90;1.00
17762;DHT22;9005;48.838;10.112;2023-06-14T18:33:50;28.00;1.00
17762;DHT22;9005;48.838;10.112;2023-06-14T18:38:44;27.10;1.00
17762;DHT22;9005;48.838;10.112;2023-06-14T18:46:05;26.00;8.40
17762;DHT22;9005;48.838;10.112;2023-06-14T18:48:33;25.90;1.00
17762;DHT22;9005;48.838;10.112;2023-06-14T18:51:00;26.00;1.00
17762;DHT22;9005;48.838;10.112;2023-06-14T18:53:27;25.40;1.00
17762;DHT22;9005;48.838;10.112;2023-06-14T19:03:16;24.70;23.10
17762;DHT22;9005;48.838;10.112;2023-06-14T19:05:44;24.50;1.00
17762;DHT22;9005;48.838;10.112;2023-06-14T19:20:31;23.00;1.00
17762;DHT22;9005;48.838;10.112;2023-06-14T19:23:00;22.80;1.00
17762;DHT22;9005;48.838;10.112;2023-06-14T19:27:55;22.50;1.00
17762;DHT22;9005;48.838;10.112;2023-06-14T19:40:13;21.70;1.00
17762;DHT22;9005;48.838;10.112;2023-06-14T19:45:08;21.60;1.00
17762;DHT22;9005;48.838;10.112;2023-06-14T19:57:27;21.10;1.00
17762;DHT22;9005;48.838;10.112;2023-06-14T20:14:38;20.50;1.00
17762;DHT22;9005;48.838;10.112;2023-06-14T20:17:05;20.40;1.00
17762;DHT22;9005;48.838;10.112;2023-06-14T20:31:49;20.00;2.40
17762;DHT22;9005;48.838;10.112;2023-06-14T20:34:16;19.80;1.00
17762;DHT22;9005;48.838;10.112;2023-06-14T20:39:10;19.60;8.10
17762;DHT22;9005;48.838;10.112;2023-06-14T20:46:31;19.00;18.70
17762;DHT22;9005;48.838;10.112;2023-06-14T20:49:02;18.80;1.00
17762;DHT22;9005;48.838;10.112;2023-06-14T21:06:15;17.70;1.00
17762;DHT22;9005;48.838;10.112;2023-06-14T21:16:03;17.50;75.20
17762;DHT22;9005;48.838;10.112;2023-06-14T21:23:26;17.10;59.50
17762;DHT22;9005;48.838;10.112;2023-06-14T21:30:47;16.70;67.10
17762;DHT22;9005;48.838;10.112;2023-06-14T21:38:10;16.50;88.30
17762;DHT22;9005;48.838;10.112;2023-06-14T21:40:39;16.50;61.20
17762;DHT22;9005;48.838;10.112;2023-06-14T21:57:52;16.30;67.40
17762;DHT22;9005;48.838;10.112;2023-06-14T22:07:41;16.40;76.40
17762;DHT22;9005;48.838;10.112;2023-06-14T22:12:36;16.00;91.80
17762;DHT22;9005;48.838;10.112;2023-06-14T22:15:07;16.00;69.80
17762;DHT22;9005;48.838;10.112;2023-06-14T22:17:34;16.00;92.00
17762;DHT22;9005;48.838;10.112;2023-06-14T22:25:03;15.60;70.20
17762;DHT22;9005;48.838;10.112;2023-06-14T22:29:57;15.60;93.50
17762;DHT22;9005;48.838;10.112;2023-06-14T22:47:29;14.80;95.40
17762;DHT22;9005;48.838;10.112;2023-06-14T22:54:52;14.80;97.00
17762;DHT22;9005;48.838;10.112;2023-06-14T23:04:45;14.60;83.00
17762;DHT22;9005;48.838;10.112;2023-06-14T23:07:12;14.80;98.60
17762;DHT22;9005;48.838;10.112;2023-06-14T23:12:09;14.60;83.60
17762;DHT22;9005;48.838;10.112;2023-06-14T23:17:04;14.60;83.40
17762;DHT22;9005;48.838;10.112;2023-06-14T23:22:00;14.70;83.70
17762;DHT22;9005;48.838;10.112;2023-06-14T23:39:16;14.70;81.80
17762;DHT22;9005;48.838;10.112;2023-06-14T23:41:44;14.80;97.90
17762;DHT22;9005;48.838;10.112;2023-06-14T23:56:38;15.00;97.90
